createdAt,value
2019-02-15T00:02:02.169Z,102848.50
2019-02-15T00:07:07.857Z,102855.33
2019-02-15T00:12:13.373Z,102844.16
2019-02-15T00:17:34.703Z,102846.10
2019-02-15T00:22:40.341Z,102857.52
2019-02-15T00:27:45.897Z,102849.77
2019-02-15T00:32:51.442Z,102845.30
2019-02-15T00:37:57.025Z,102845.28
2019-02-15T00:43:02.549Z,102840.61
2019-02-15T00:48:12.501Z,102848.84
2019-02-15T00:53:36.733Z,102851.76
2019-02-15T00:58:54.382Z,102845.72
2019-02-15T01:04:07.467Z,102843.64
2019-02-15T01:09:50.679Z,102840.41
2019-02-15T01:14:56.163Z,102835.74
2019-02-15T01:20:01.688Z,102837.28
2019-02-15T01:25:07.238Z,102829.66
2019-02-15T01:30:30.260Z,102830.52
2019-02-15T01:35:58.062Z,102822.83
2019-02-15T01:41:12.807Z,102819.05
2019-02-15T01:46:28.739Z,102820.55
2019-02-15T01:51:34.317Z,102812.78
2019-02-15T01:56:39.839Z,102818.25
2019-02-15T02:01:45.228Z,102817.07
2019-02-15T02:06:50.805Z,102811.16
2019-02-15T02:11:56.488Z,102803.02
2019-02-15T02:17:02.088Z,102794.39
2019-02-15T02:22:07.759Z,102791.81
2019-02-15T02:27:13.144Z,102781.86
2019-02-15T02:32:18.626Z,102777.92
2019-02-15T02:37:24.340Z,102778.16
2019-02-15T02:42:29.806Z,102784.62
2019-02-15T02:47:35.238Z,102781.03
2019-02-15T02:52:40.686Z,102779.51
2019-02-15T02:57:46.312Z,102780.98
2019-02-15T03:02:51.719Z,102781.97
2019-02-15T03:07:57.064Z,102772.37
2019-02-15T03:13:02.493Z,102779.53
2019-02-15T03:18:07.973Z,102778.06
2019-02-15T03:23:13.435Z,102774.25
2019-02-15T03:28:18.949Z,102772.90
2019-02-15T03:33:24.436Z,102775.56
2019-02-15T03:38:50.246Z,102768.54
2019-02-15T03:43:56.205Z,102771.09
2019-02-15T03:49:01.529Z,102764.53
2019-02-15T03:54:07.013Z,102758.80
2019-02-15T03:59:12.288Z,102760.83
2019-02-15T04:04:17.586Z,102758.87
2019-02-15T04:09:22.917Z,102754.30
2019-02-15T04:14:32.885Z,102759.06
2019-02-15T04:19:35.453Z,102760.27
2019-02-15T04:24:40.862Z,102762.45
2019-02-15T04:29:46.219Z,102760.83
2019-02-15T04:34:51.730Z,102757.21
2019-02-15T04:39:57.162Z,102757.67
2019-02-15T04:45:02.564Z,102755.98
2019-02-15T04:50:09.740Z,102756.19
2019-02-15T04:55:15.073Z,102759.66
2019-02-15T05:00:20.372Z,102751.58
2019-02-15T05:05:25.961Z,102749.34
2019-02-15T05:10:31.297Z,102748.01
2019-02-15T05:15:36.606Z,102743.73
2019-02-15T05:20:41.940Z,102744.41
2019-02-15T05:25:47.395Z,102748.08
2019-02-15T05:30:52.895Z,102747.94
2019-02-15T05:35:58.347Z,102747.01
2019-02-15T05:41:03.814Z,102748.94
2019-02-15T05:46:09.429Z,102748.64
2019-02-15T05:51:14.927Z,102751.69
2019-02-15T05:56:20.405Z,102750.14
2019-02-15T06:01:27.662Z,102757.00
2019-02-15T06:06:33.125Z,102757.81
2019-02-15T06:11:38.490Z,102758.98
2019-02-15T06:16:43.781Z,102757.43
2019-02-15T06:21:49.146Z,102763.55
2019-02-15T06:26:54.514Z,102759.11
2019-02-15T06:31:59.906Z,102761.16
2019-02-15T06:37:05.390Z,102756.78
2019-02-15T06:42:10.897Z,102766.37
2019-02-15T06:47:16.308Z,102768.48
2019-02-15T06:52:21.691Z,102772.08
2019-02-15T06:57:26.982Z,102775.60
2019-02-15T07:02:51.390Z,102780.35
2019-02-15T07:07:57.091Z,102785.78
2019-02-15T07:13:02.574Z,102792.69
2019-02-15T07:18:08.266Z,102790.03
2019-02-15T07:23:13.593Z,102794.11
2019-02-15T07:28:18.999Z,102795.17
2019-02-15T07:33:24.388Z,102801.77
2019-02-15T07:38:29.740Z,102800.97
2019-02-15T07:43:35.068Z,102795.55
2019-02-15T07:48:40.491Z,102792.36
2019-02-15T07:53:45.995Z,102784.23
2019-02-15T07:58:51.392Z,102763.77
2019-02-15T08:03:56.842Z,102752.41
2019-02-15T08:09:02.238Z,102745.66
2019-02-15T08:14:14.552Z,102738.26
2019-02-15T08:19:14.686Z,102725.58
2019-02-15T08:24:20.235Z,102722.15
2019-02-15T08:29:25.612Z,102714.30
2019-02-15T08:34:31.048Z,102710.52
2019-02-15T08:39:36.606Z,102701.17
2019-02-15T08:44:42.106Z,102703.34
2019-02-15T08:49:47.413Z,102699.31
2019-02-15T08:54:52.788Z,102692.27
2019-02-15T08:59:58.129Z,102698.11
2019-02-15T09:05:03.570Z,102691.45
2019-02-15T09:10:10.902Z,102685.16
2019-02-15T09:15:19.428Z,102680.53
2019-02-15T09:20:24.749Z,102672.44
2019-02-15T09:25:30.103Z,102669.07
2019-02-15T09:30:35.409Z,102672.31
2019-02-15T09:35:40.751Z,102656.66
2019-02-15T09:40:46.162Z,102648.47
2019-02-15T09:45:51.488Z,102647.09
2019-02-15T09:50:56.839Z,102644.28
2019-02-15T09:56:02.529Z,102642.53
2019-02-15T10:01:07.968Z,102643.84
2019-02-15T10:06:13.433Z,102653.74
2019-02-15T10:11:18.909Z,102664.92
2019-02-15T10:16:29.686Z,102680.51
2019-02-15T10:21:33.030Z,102677.76
2019-02-15T10:26:38.631Z,102682.75
2019-02-15T10:31:43.976Z,102677.73
2019-02-15T10:36:49.561Z,102683.29
2019-02-15T10:41:54.958Z,102688.61
2019-02-15T10:47:00.385Z,102689.60
2019-02-15T10:52:05.868Z,102689.45
2019-02-15T10:57:11.243Z,102680.37
2019-02-15T11:02:16.641Z,102663.97
2019-02-15T11:07:22.000Z,102667.95
2019-02-15T11:12:27.485Z,102650.75
2019-02-15T11:17:39.329Z,102650.11
2019-02-15T11:22:44.673Z,102647.18
2019-02-15T11:27:50.073Z,102638.84
2019-02-15T11:32:55.389Z,102627.23
2019-02-15T11:38:02.112Z,102624.37
2019-02-15T11:43:07.583Z,102610.64
2019-02-15T11:48:13.025Z,102604.17
2019-02-15T11:53:20.453Z,102602.47
2019-02-15T11:58:25.767Z,102590.38
2019-02-15T12:03:31.121Z,102590.19
2019-02-15T12:08:36.578Z,102580.84
2019-02-15T12:13:42.036Z,102563.25
2019-02-15T12:18:47.344Z,102549.61
2019-02-15T12:23:52.653Z,102547.94
2019-02-15T12:28:58.031Z,102541.22
2019-02-15T12:34:03.529Z,102539.77
2019-02-15T12:39:09.206Z,102526.40
2019-02-15T12:44:14.654Z,102515.47
2019-02-15T12:49:20.062Z,102504.98
2019-02-15T12:54:25.449Z,102499.45
2019-02-15T12:59:30.761Z,102484.34
2019-02-15T13:04:36.169Z,102472.81
2019-02-15T13:09:41.717Z,102461.09
2019-02-15T13:14:47.063Z,102462.22
2019-02-15T13:19:52.490Z,102452.98
2019-02-15T13:24:57.989Z,102442.89
2019-02-15T13:30:03.395Z,102430.98
2019-02-15T13:35:10.589Z,102429.95
2019-02-15T13:40:16.152Z,102414.94
2019-02-15T13:45:21.544Z,102411.96
2019-02-15T13:50:27.000Z,102413.33
2019-02-15T13:55:32.387Z,102416.07
2019-02-15T14:00:37.758Z,102404.38
2019-02-15T14:05:43.093Z,102399.76
2019-02-15T14:10:48.596Z,102385.49
2019-02-15T14:15:54.054Z,102377.12
2019-02-15T14:20:59.399Z,102366.66
2019-02-15T14:26:04.819Z,102366.64
2019-02-15T14:31:10.143Z,102365.59
2019-02-15T14:36:15.614Z,102354.02
2019-02-15T14:41:21.034Z,102359.91
2019-02-15T14:46:26.377Z,102341.72
2019-02-15T14:51:31.692Z,102349.95
2019-02-15T14:56:37.162Z,102335.69
2019-02-15T15:01:42.463Z,102334.23
2019-02-15T15:06:48.433Z,102332.81
2019-02-15T15:11:53.935Z,102315.88
2019-02-15T15:16:59.246Z,102317.08
2019-02-15T15:22:07.191Z,102313.14
2019-02-15T15:27:13.903Z,102295.94
2019-02-15T15:32:19.404Z,102294.61
2019-02-15T15:37:24.920Z,102288.97
2019-02-15T15:42:30.231Z,102294.47
2019-02-15T15:47:35.954Z,102282.84
2019-02-15T15:52:41.627Z,102279.98
2019-02-15T15:57:47.110Z,102275.15
2019-02-15T16:02:52.891Z,102272.72
2019-02-15T16:07:58.328Z,102270.83
2019-02-15T16:13:03.787Z,102269.81
2019-02-15T16:18:09.093Z,102266.03
2019-02-15T16:23:14.543Z,102262.05
2019-02-15T16:28:20.023Z,102261.39
2019-02-15T16:33:25.485Z,102263.16
2019-02-15T16:38:31.087Z,102256.69
2019-02-15T16:43:36.581Z,102257.84
2019-02-15T16:48:42.466Z,102251.07
2019-02-15T16:53:47.766Z,102259.61
2019-02-15T16:58:53.088Z,102257.29
2019-02-15T17:03:58.368Z,102254.57
2019-02-15T17:09:05.455Z,102263.79
2019-02-15T17:14:10.848Z,102270.61
2019-02-15T17:19:16.269Z,102273.63
2019-02-15T17:24:21.674Z,102275.33
2019-02-15T17:29:27.062Z,102270.66
2019-02-15T17:34:32.446Z,102275.86
2019-02-15T17:39:37.880Z,102278.27
2019-02-15T17:44:43.398Z,102275.79
2019-02-15T17:49:48.841Z,102268.82
2019-02-15T17:54:54.151Z,102270.46
2019-02-15T17:59:59.639Z,102263.74
2019-02-15T18:05:05.326Z,102269.72
2019-02-15T18:10:10.824Z,102267.48
2019-02-15T18:15:16.326Z,102271.47
2019-02-15T18:20:21.701Z,102270.16
2019-02-15T18:25:27.049Z,102266.48
2019-02-15T18:30:32.392Z,102264.69
2019-02-15T18:35:37.752Z,102265.25
2019-02-15T18:40:43.068Z,102261.14
2019-02-15T18:45:48.478Z,102264.19
2019-02-15T18:50:53.972Z,102255.87
2019-02-15T18:55:59.456Z,102261.90
2019-02-15T19:01:05.032Z,102254.06
2019-02-15T19:06:10.508Z,102252.05
2019-02-15T19:11:16.077Z,102254.65
2019-02-15T19:16:21.635Z,102253.94
2019-02-15T19:21:26.975Z,102246.52
2019-02-15T19:26:32.431Z,102245.11
2019-02-15T19:31:37.832Z,102244.61
2019-02-15T19:36:43.375Z,102249.87
2019-02-15T19:41:48.708Z,102246.13
2019-02-15T19:46:54.152Z,102250.66
2019-02-15T19:51:59.526Z,102246.60
2019-02-15T19:57:04.920Z,102246.20
2019-02-15T20:02:10.237Z,102236.83
2019-02-15T20:07:15.894Z,102235.91
2019-02-15T20:12:21.199Z,102238.86
2019-02-15T20:17:26.508Z,102241.43
2019-02-15T20:22:31.864Z,102238.44
2019-02-15T20:27:37.191Z,102235.17
2019-02-15T20:32:42.551Z,102237.63
2019-02-15T20:37:48.154Z,102243.91
2019-02-15T20:42:53.582Z,102244.22
2019-02-15T20:47:59.049Z,102238.55
2019-02-15T20:53:04.351Z,102221.64
2019-02-15T20:58:09.688Z,102227.84
2019-02-15T21:03:14.962Z,102231.27
2019-02-15T21:08:20.355Z,102238.42
2019-02-15T21:13:25.776Z,102236.70
2019-02-15T21:18:31.112Z,102240.55
2019-02-15T21:23:36.386Z,102235.72
2019-02-15T21:28:41.775Z,102228.53
2019-02-15T21:33:47.139Z,102230.44
2019-02-15T21:38:52.515Z,102236.73
2019-02-15T21:43:57.866Z,102240.13
2019-02-15T21:49:03.163Z,102241.77
2019-02-15T21:54:08.631Z,102239.87
2019-02-15T21:59:13.943Z,102237.05
2019-02-15T22:04:19.257Z,102225.58
2019-02-15T22:09:24.836Z,102223.00
2019-02-15T22:14:30.160Z,102222.95
2019-02-15T22:19:35.460Z,102228.89
2019-02-15T22:24:40.773Z,102217.02
2019-02-15T22:29:46.174Z,102219.85
2019-02-15T22:34:51.507Z,102217.86
2019-02-15T22:39:56.836Z,102216.06
2019-02-15T22:45:02.470Z,102224.64
2019-02-15T22:50:07.908Z,102210.18
2019-02-15T22:55:13.344Z,102207.32
2019-02-15T23:00:25.625Z,102197.95
2019-02-15T23:05:30.934Z,102190.50
2019-02-15T23:10:36.357Z,102190.70
2019-02-15T23:15:41.840Z,102197.52
2019-02-15T23:20:47.141Z,102201.45
2019-02-15T23:25:55.713Z,102193.62
2019-02-15T23:31:01.085Z,102201.38
2019-02-15T23:36:06.507Z,102199.34
2019-02-15T23:41:11.980Z,102193.30
2019-02-15T23:46:17.338Z,102189.69
2019-02-15T23:51:22.756Z,102181.55
2019-02-15T23:56:28.070Z,102181.25
